createdAt,value
2022-11-10T00:01:34.082Z,95.53
2022-11-10T00:04:01.639Z,97.15
2022-11-10T00:06:31.197Z,97.00
2022-11-10T00:08:58.059Z,93.70
2022-11-10T00:11:27.736Z,94.03
2022-11-10T00:14:12.985Z,92.45
2022-11-10T00:16:58.477Z,95.90
2022-11-10T00:19:29.214Z,93.00
2022-11-10T00:21:59.223Z,91.78
2022-11-10T00:24:32.472Z,94.20
2022-11-10T00:26:59.114Z,94.38
2022-11-10T00:29:26.062Z,92.63
2022-11-10T00:31:55.840Z,95.38
2022-11-10T00:34:22.734Z,90.85
2022-11-10T00:36:52.597Z,92.20
2022-11-10T00:39:19.396Z,91.97
2022-11-10T00:41:46.112Z,94.15
2022-11-10T00:44:12.881Z,91.35
2022-11-10T00:46:39.596Z,93.70
2022-11-10T00:49:07.153Z,95.00
2022-11-10T00:51:33.937Z,94.35
2022-11-10T00:54:03.655Z,92.47
2022-11-10T00:56:30.667Z,93.25
2022-11-10T00:58:57.457Z,89.97
2022-11-10T01:01:25.834Z,92.57
2022-11-10T01:03:55.522Z,90.97
2022-11-10T01:06:22.545Z,92.22
2022-11-10T01:08:49.472Z,87.05
2022-11-10T01:11:24.236Z,91.63
2022-11-10T01:13:55.693Z,86.93
2022-11-10T01:16:28.489Z,84.45
2022-11-10T01:19:07.880Z,86.88
2022-11-10T01:21:34.538Z,88.82
2022-11-10T01:24:01.372Z,89.30
2022-11-10T01:26:29.813Z,89.70
2022-11-10T01:28:57.760Z,87.32
2022-11-10T01:31:24.672Z,89.35
2022-11-10T01:33:51.345Z,88.18
2022-11-10T01:36:18.006Z,91.30
2022-11-10T01:38:44.669Z,87.88
2022-11-10T01:41:13.412Z,87.97
2022-11-10T01:43:40.227Z,91.55
2022-11-10T01:46:12.514Z,84.72
2022-11-10T01:48:59.522Z,87.05
2022-11-10T01:51:38.503Z,80.63
2022-11-10T01:54:19.447Z,86.63
2022-11-10T01:56:50.460Z,84.35
2022-11-10T01:59:22.804Z,83.80
2022-11-10T02:01:53.385Z,82.50
2022-11-10T02:04:51.445Z,84.43
2022-11-10T02:07:22.620Z,80.75
2022-11-10T02:09:49.402Z,82.55
2022-11-10T02:12:37.059Z,83.43
2022-11-10T02:15:12.495Z,80.80
2022-11-10T02:17:39.976Z,78.45
2022-11-10T02:20:12.624Z,77.60
2022-11-10T02:22:40.305Z,83.32
2022-11-10T02:25:07.813Z,80.03
2022-11-10T02:27:37.263Z,77.65
2022-11-10T02:30:06.147Z,76.22
2022-11-10T02:32:36.651Z,79.05
2022-11-10T02:35:04.152Z,81.32
2022-11-10T02:37:36.858Z,74.60
2022-11-10T02:40:04.422Z,79.90
2022-11-10T02:42:31.073Z,80.70
2022-11-10T02:44:58.007Z,80.10
2022-11-10T02:47:24.905Z,77.53
2022-11-10T02:49:56.923Z,79.15
2022-11-10T02:52:25.350Z,75.40
2022-11-10T02:54:54.295Z,75.68
2022-11-10T02:57:23.711Z,76.30
2022-11-10T02:59:51.924Z,78.10
2022-11-10T03:02:18.969Z,76.10
2022-11-10T03:04:53.884Z,77.10
2022-11-10T03:07:21.505Z,77.40
2022-11-10T03:09:48.420Z,74.68
2022-11-10T03:12:15.100Z,76.95
2022-11-10T03:14:47.476Z,78.25
2022-11-10T03:17:14.252Z,79.60
2022-11-10T03:19:46.845Z,78.07
2022-11-10T03:22:16.253Z,75.78
2022-11-10T03:24:45.373Z,75.90
2022-11-10T03:27:12.091Z,75.80
2022-11-10T03:29:38.780Z,74.40
2022-11-10T03:32:16.189Z,78.30
2022-11-10T03:34:42.802Z,76.20
2022-11-10T03:37:26.221Z,79.53
2022-11-10T03:39:55.038Z,77.70
2022-11-10T03:42:24.414Z,79.43
2022-11-10T03:44:51.116Z,79.15
2022-11-10T03:47:17.851Z,79.70
2022-11-10T03:49:44.569Z,81.90
2022-11-10T03:52:14.625Z,76.60
2022-11-10T03:54:41.289Z,81.70
2022-11-10T03:57:09.526Z,81.72
2022-11-10T03:59:44.967Z,80.22
2022-11-10T04:02:11.734Z,81.40
2022-11-10T04:04:56.979Z,79.60
2022-11-10T04:07:44.141Z,81.03
2022-11-10T04:10:10.847Z,81.93
2022-11-10T04:13:02.317Z,81.10
2022-11-10T04:15:45.692Z,81.72
2022-11-10T04:18:26.947Z,80.95
2022-11-10T04:21:02.074Z,80.00
2022-11-10T04:23:31.199Z,82.50
2022-11-10T04:26:20.380Z,79.95
2022-11-10T04:31:32.411Z,79.82
2022-11-10T04:33:59.257Z,81.63
2022-11-10T04:36:29.229Z,77.80
2022-11-10T04:38:56.358Z,80.35
2022-11-10T04:41:24.571Z,76.68
2022-11-10T04:43:53.861Z,77.03
2022-11-10T04:46:27.999Z,81.85
2022-11-10T04:48:56.264Z,80.50
2022-11-10T04:51:29.874Z,78.22
2022-11-10T04:53:57.132Z,77.78
2022-11-10T04:56:25.191Z,77.63
2022-11-10T04:58:52.458Z,78.45
2022-11-10T05:01:25.887Z,77.85
2022-11-10T05:03:53.338Z,78.65
2022-11-10T05:06:20.200Z,78.25
2022-11-10T05:08:50.442Z,77.07
2022-11-10T05:11:18.703Z,78.93
2022-11-10T05:13:48.825Z,79.50
2022-11-10T05:16:17.534Z,75.30
2022-11-10T05:18:44.306Z,76.57
2022-11-10T05:21:15.555Z,76.10
2022-11-10T05:23:48.869Z,80.07
2022-11-10T05:26:20.386Z,81.35
2022-11-10T05:29:01.380Z,78.20
2022-11-10T05:31:46.792Z,79.72
2022-11-10T05:34:24.901Z,78.75
2022-11-10T05:36:51.658Z,77.57
2022-11-10T05:39:18.390Z,77.47
2022-11-10T05:41:49.849Z,78.47
2022-11-10T05:44:18.039Z,78.60
2022-11-10T05:46:45.353Z,76.97
2022-11-10T05:49:12.071Z,74.60
2022-11-10T05:51:38.712Z,76.35
2022-11-10T05:54:10.912Z,77.88
2022-11-10T05:56:37.921Z,79.45
2022-11-10T05:59:04.674Z,79.63
2022-11-10T06:01:31.348Z,81.80
2022-11-10T06:03:59.985Z,78.20
2022-11-10T06:06:26.764Z,79.57
2022-11-10T06:09:03.421Z,80.93
2022-11-10T06:11:30.283Z,77.20
2022-11-10T06:13:56.979Z,78.95
2022-11-10T06:16:23.661Z,76.25
2022-11-10T06:18:59.239Z,78.88
2022-11-10T06:21:26.534Z,77.57
2022-11-10T06:23:54.611Z,78.45
2022-11-10T06:26:25.875Z,79.57
2022-11-10T06:28:53.853Z,80.05
2022-11-10T06:31:23.144Z,76.00
2022-11-10T06:33:49.780Z,79.72
2022-11-10T06:36:16.497Z,78.63
2022-11-10T06:38:43.152Z,80.10
2022-11-10T06:41:09.908Z,81.43
2022-11-10T06:43:36.601Z,80.32
2022-11-10T06:46:03.185Z,81.40
2022-11-10T06:48:29.806Z,78.28
2022-11-10T06:50:59.939Z,82.10
2022-11-10T06:53:28.919Z,81.57
2022-11-10T06:55:56.385Z,79.70
2022-11-10T06:58:23.111Z,80.00
2022-11-10T07:00:52.976Z,77.22
2022-11-10T07:03:22.038Z,81.70
2022-11-10T07:05:51.522Z,76.05
2022-11-10T07:08:27.725Z,78.88
2022-11-10T07:10:56.770Z,78.40
2022-11-10T07:13:24.782Z,79.68
2022-11-10T07:15:52.364Z,78.82
2022-11-10T07:18:19.051Z,81.60
2022-11-10T07:20:48.385Z,80.50
2022-11-10T07:23:15.000Z,80.47
2022-11-10T07:25:41.653Z,81.18
2022-11-10T07:28:10.714Z,80.82
2022-11-10T07:30:41.571Z,81.82
2022-11-10T07:33:14.192Z,76.53
2022-11-10T07:35:43.390Z,81.13
2022-11-10T07:38:17.614Z,79.22
2022-11-10T07:40:44.285Z,77.10
2022-11-10T07:43:10.923Z,77.80
2022-11-10T07:45:37.894Z,79.57
2022-11-10T07:48:06.773Z,79.75
2022-11-10T07:50:36.524Z,80.78
2022-11-10T07:53:11.651Z,80.05
2022-11-10T07:55:46.541Z,81.93
2022-11-10T07:58:15.062Z,79.18
2022-11-10T08:00:42.841Z,76.45
2022-11-10T08:03:15.675Z,80.50
2022-11-10T08:05:42.840Z,81.63
2022-11-10T08:08:10.486Z,81.90
2022-11-10T08:10:39.045Z,82.88
2022-11-10T08:13:10.129Z,82.88
2022-11-10T08:15:38.226Z,82.63
2022-11-10T08:18:19.926Z,82.68
2022-11-10T08:20:46.885Z,84.10
2022-11-10T08:23:13.821Z,78.75
2022-11-10T08:25:40.728Z,79.10
2022-11-10T08:28:10.661Z,80.18
2022-11-10T08:30:39.063Z,81.57
2022-11-10T08:33:16.143Z,81.80
2022-11-10T08:35:48.172Z,81.80
2022-11-10T08:38:17.667Z,83.97
2022-11-10T08:40:45.309Z,82.18
2022-11-10T08:43:21.956Z,83.40
2022-11-10T08:45:57.566Z,84.90
2022-11-10T08:48:25.416Z,82.45
2022-11-10T08:50:52.363Z,84.60
2022-11-10T08:53:25.678Z,83.18
2022-11-10T08:55:59.566Z,82.18
2022-11-10T08:58:27.040Z,82.60
2022-11-10T09:00:53.966Z,82.13
2022-11-10T09:03:23.960Z,82.38
2022-11-10T09:05:57.705Z,86.70
2022-11-10T09:08:34.142Z,84.43
2022-11-10T09:11:04.542Z,82.45
2022-11-10T09:13:31.857Z,86.07
2022-11-10T09:16:08.121Z,83.82
2022-11-10T09:18:35.354Z,85.90
2022-11-10T09:21:05.290Z,89.05
2022-11-10T09:23:32.087Z,84.32
2022-11-10T09:25:59.053Z,88.53
2022-11-10T09:28:29.900Z,87.28
2022-11-10T09:30:57.529Z,87.10
2022-11-10T09:33:24.985Z,89.72
2022-11-10T09:36:02.829Z,85.13
2022-11-10T09:38:29.629Z,85.07
2022-11-10T09:41:12.120Z,87.95
2022-11-10T09:44:16.078Z,87.53
2022-11-10T09:46:53.914Z,87.38
2022-11-10T09:49:39.652Z,88.50
2022-11-10T09:52:08.126Z,88.38
2022-11-10T09:55:30.545Z,87.93
2022-11-10T10:01:48.345Z,90.00
2022-11-10T10:04:37.365Z,88.25
2022-11-10T10:07:51.672Z,89.80
2022-11-10T10:10:45.330Z,91.45
2022-11-10T10:13:30.490Z,92.28
2022-11-10T10:16:09.239Z,95.03
2022-11-10T10:18:55.792Z,99.88
2022-11-10T10:28:38.175Z,97.43
2022-11-10T10:31:19.318Z,95.22
2022-11-10T10:33:46.837Z,95.90
2022-11-10T10:36:22.550Z,93.28
2022-11-10T10:39:11.630Z,96.00
2022-11-10T10:41:38.444Z,95.63
2022-11-10T10:44:18.628Z,97.38
2022-11-10T10:47:04.957Z,95.45
2022-11-10T10:49:36.588Z,93.60
2022-11-10T10:52:06.148Z,92.30
2022-11-10T10:54:43.272Z,91.18
2022-11-10T10:57:24.197Z,96.95
2022-11-10T10:59:52.109Z,93.22
2022-11-10T11:02:32.243Z,96.15
2022-11-10T11:05:19.393Z,96.53
2022-11-10T11:08:04.357Z,94.18
2022-11-10T11:10:36.761Z,98.57
2022-11-10T11:13:16.498Z,94.60
2022-11-10T11:15:47.540Z,92.80
2022-11-10T11:18:25.610Z,92.32
2022-11-10T11:21:10.993Z,90.82
2022-11-10T11:24:09.013Z,89.25
2022-11-10T11:26:59.715Z,89.28
2022-11-10T11:30:07.936Z,90.00
2022-11-10T11:33:24.983Z,89.75
2022-11-10T11:36:10.549Z,85.63
2022-11-10T11:38:56.267Z,88.05
2022-11-10T11:42:07.313Z,90.65
2022-11-10T11:45:28.515Z,87.32
2022-11-10T11:48:12.947Z,86.70
2022-11-10T11:50:43.854Z,82.85
2022-11-10T11:53:10.907Z,82.13
2022-11-10T11:56:07.266Z,84.63
2022-11-10T11:58:45.144Z,84.47
2022-11-10T12:01:35.694Z,81.07
2022-11-10T12:04:35.046Z,83.38
2022-11-10T12:07:45.120Z,82.45
2022-11-10T12:10:27.947Z,79.32
2022-11-10T12:13:23.203Z,87.45
2022-11-10T12:16:20.585Z,81.80
2022-11-10T12:18:53.117Z,85.53
2022-11-10T12:21:53.313Z,86.68
2022-11-10T12:24:51.784Z,85.43
2022-11-10T12:27:40.895Z,83.00
2022-11-10T12:30:16.084Z,85.70
2022-11-10T12:33:14.866Z,82.20
2022-11-10T12:35:45.887Z,85.30
2022-11-10T12:38:16.642Z,86.22
2022-11-10T12:41:01.933Z,81.13
2022-11-10T12:43:56.616Z,86.85
2022-11-10T12:46:23.801Z,85.63
2022-11-10T12:48:50.413Z,84.90
2022-11-10T12:51:44.674Z,84.22
2022-11-10T12:54:16.815Z,84.75
2022-11-10T12:56:59.490Z,84.57
2022-11-10T12:59:40.695Z,83.50
2022-11-10T13:02:22.543Z,83.60
2022-11-10T13:05:18.493Z,82.97
2022-11-10T13:07:49.559Z,79.90
2022-11-10T13:10:50.655Z,78.55
2022-11-10T13:13:18.330Z,78.88
2022-11-10T13:15:58.610Z,81.10
2022-11-10T13:18:34.180Z,81.32
2022-11-10T13:21:01.090Z,80.68
2022-11-10T13:23:36.026Z,81.22
2022-11-10T13:26:07.204Z,81.95
2022-11-10T13:28:49.206Z,77.22
2022-11-10T13:31:33.281Z,79.30
2022-11-10T13:34:06.477Z,79.70
2022-11-10T13:36:47.150Z,79.05
2022-11-10T13:39:26.992Z,75.22
2022-11-10T13:42:02.310Z,76.85
2022-11-10T13:44:48.211Z,75.50
2022-11-10T13:47:39.872Z,76.57
2022-11-10T13:50:28.583Z,70.82
2022-11-10T13:53:18.725Z,73.97
2022-11-10T13:55:45.271Z,72.50
2022-11-10T13:58:19.216Z,72.43
2022-11-10T14:00:53.003Z,70.88
2022-11-10T14:03:47.685Z,71.15
2022-11-10T14:06:41.228Z,68.88
2022-11-10T14:09:27.162Z,72.22
2022-11-10T14:12:09.348Z,66.72
2022-11-10T14:15:04.350Z,66.55
2022-11-10T14:17:34.709Z,65.95
2022-11-10T14:20:02.916Z,67.97
2022-11-10T14:22:42.736Z,66.28
2022-11-10T14:25:30.016Z,67.18
2022-11-10T14:28:01.668Z,66.18
2022-11-10T14:30:30.559Z,65.53
2022-11-10T14:33:20.679Z,64.55
2022-11-10T14:36:05.315Z,66.03
2022-11-10T14:38:37.424Z,62.15
2022-11-10T14:41:06.782Z,60.40
2022-11-10T14:43:42.198Z,63.85
2022-11-10T14:46:18.191Z,61.85
2022-11-10T14:48:44.834Z,60.10
2022-11-10T14:51:19.601Z,62.42
2022-11-10T14:53:56.581Z,60.50
2022-11-10T14:56:36.530Z,57.35
2022-11-10T14:59:07.902Z,57.47
2022-11-10T15:01:38.866Z,59.30
2022-11-10T15:04:09.927Z,56.83
2022-11-10T15:06:46.838Z,60.90
2022-11-10T15:09:32.668Z,59.38
2022-11-10T15:12:22.457Z,58.88
2022-11-10T15:15:02.591Z,55.67
2022-11-10T15:17:48.151Z,59.35
2022-11-10T15:20:35.699Z,61.22
2022-11-10T15:23:04.674Z,60.40
2022-11-10T15:25:37.812Z,57.47
2022-11-10T15:28:06.360Z,56.97
2022-11-10T15:30:36.857Z,58.35
2022-11-10T15:33:17.745Z,59.53
2022-11-10T15:35:53.347Z,60.83
2022-11-10T15:38:30.060Z,61.15
2022-11-10T15:41:12.526Z,58.17
2022-11-10T15:43:40.258Z,61.83
2022-11-10T15:46:25.043Z,61.40
2022-11-10T15:48:53.143Z,59.30
2022-11-10T15:51:26.483Z,61.25
2022-11-10T15:53:54.489Z,61.47
2022-11-10T15:56:30.202Z,62.47
2022-11-10T15:59:03.733Z,61.70
2022-11-10T16:01:31.466Z,63.38
2022-11-10T16:03:58.211Z,61.35
2022-11-10T16:06:25.078Z,64.03
2022-11-10T16:08:51.815Z,60.55
2022-11-10T16:11:23.241Z,64.30
2022-11-10T16:14:01.584Z,63.75
2022-11-10T16:16:31.607Z,59.60
2022-11-10T16:19:05.170Z,63.05
2022-11-10T16:21:41.057Z,59.83
2022-11-10T16:24:08.172Z,60.80
2022-11-10T16:26:35.440Z,59.83
2022-11-10T16:29:06.097Z,60.20
2022-11-10T16:31:37.439Z,61.15
2022-11-10T16:34:04.552Z,60.70
2022-11-10T16:36:34.334Z,64.05
2022-11-10T16:39:17.089Z,62.22
2022-11-10T16:41:45.537Z,63.28
2022-11-10T16:44:14.245Z,60.55
2022-11-10T16:46:47.062Z,59.38
2022-11-10T16:49:35.507Z,58.58
2022-11-10T16:52:15.437Z,61.42
2022-11-10T16:54:46.959Z,61.33
2022-11-10T16:57:15.766Z,62.70
2022-11-10T16:59:46.111Z,60.47
2022-11-10T17:02:27.608Z,60.67
2022-11-10T17:04:55.224Z,57.97
2022-11-10T17:07:28.678Z,55.30
2022-11-10T17:10:19.834Z,58.85
2022-11-10T17:12:47.619Z,57.57
2022-11-10T17:15:19.890Z,58.88
2022-11-10T17:17:51.113Z,56.67
2022-11-10T17:20:22.296Z,57.92
2022-11-10T17:22:56.647Z,53.72
2022-11-10T17:25:29.976Z,56.33
2022-11-10T17:27:57.554Z,55.80
2022-11-10T17:30:33.466Z,54.20
2022-11-10T17:33:06.206Z,54.63
2022-11-10T17:35:45.351Z,53.53
2022-11-10T17:38:19.564Z,53.67
2022-11-10T17:40:46.202Z,55.17
2022-11-10T17:43:17.963Z,55.40
2022-11-10T17:48:17.235Z,53.55
2022-11-10T17:50:56.019Z,54.25
2022-11-10T17:53:27.040Z,52.08
2022-11-10T17:55:57.090Z,55.10
2022-11-10T17:58:23.808Z,54.85
2022-11-10T18:00:50.441Z,54.42
2022-11-10T18:03:21.728Z,55.88
2022-11-10T18:05:53.135Z,55.28
2022-11-10T18:08:23.069Z,57.47
2022-11-10T18:16:21.371Z,57.67
2022-11-10T18:18:50.733Z,55.95
2022-11-10T18:21:17.784Z,55.65
2022-11-10T18:23:44.897Z,55.10
2022-11-10T18:26:11.898Z,56.78
2022-11-10T18:28:47.784Z,57.03
2022-11-10T18:31:14.856Z,57.90
2022-11-10T18:33:41.798Z,55.80
2022-11-10T18:36:10.146Z,59.10
2022-11-10T18:38:37.198Z,56.55
2022-11-10T18:41:27.188Z,54.47
2022-11-10T18:43:59.484Z,53.78
2022-11-10T18:46:28.143Z,54.50
2022-11-10T18:49:08.342Z,54.25
2022-11-10T18:51:50.731Z,54.85
2022-11-10T18:54:20.589Z,56.10
2022-11-10T18:56:53.599Z,53.30
2022-11-10T18:59:20.274Z,51.38
2022-11-10T19:01:48.289Z,54.47
2022-11-10T19:04:17.964Z,52.60
2022-11-10T19:07:01.591Z,52.90
2022-11-10T19:09:35.144Z,54.15
2022-11-10T19:12:01.990Z,50.90
2022-11-10T19:14:33.039Z,50.42
2022-11-10T19:17:06.392Z,53.27
2022-11-10T19:19:36.689Z,48.65
2022-11-10T19:22:04.599Z,50.15
2022-11-10T19:24:53.691Z,51.70
2022-11-10T19:27:34.529Z,50.08
2022-11-10T19:30:03.846Z,50.60
2022-11-10T19:32:33.665Z,51.17
2022-11-10T19:35:01.026Z,51.42
2022-11-10T19:37:33.366Z,52.22
2022-11-10T19:40:04.824Z,54.00
2022-11-10T19:42:35.063Z,53.83
2022-11-10T19:45:08.163Z,52.80
2022-11-10T19:47:34.928Z,52.13
2022-11-10T19:50:03.534Z,52.28
2022-11-10T19:52:33.471Z,52.55
2022-11-10T19:55:00.304Z,50.30
2022-11-10T19:57:36.038Z,52.40
2022-11-10T20:00:12.688Z,51.42
2022-11-10T20:02:45.364Z,52.33
2022-11-10T20:05:18.524Z,50.80
2022-11-10T20:08:07.536Z,53.28
2022-11-10T20:10:42.793Z,51.70
2022-11-10T20:13:12.182Z,52.53
2022-11-10T20:15:41.982Z,53.88
2022-11-10T20:18:16.149Z,54.50
2022-11-10T20:20:53.280Z,52.22
2022-11-10T20:23:20.412Z,54.28
2022-11-10T20:26:09.876Z,55.28
2022-11-10T20:28:42.899Z,53.97
2022-11-10T20:31:17.765Z,54.25
2022-11-10T20:33:50.618Z,55.28
2022-11-10T20:39:18.684Z,57.60
2022-11-10T20:41:56.401Z,57.80
2022-11-10T20:44:23.531Z,59.05
2022-11-10T20:46:56.504Z,60.33
2022-11-10T20:49:30.196Z,59.75
2022-11-10T20:51:59.888Z,61.75
2022-11-10T20:54:33.401Z,59.03
2022-11-10T20:57:00.425Z,56.08
2022-11-10T20:59:33.544Z,57.90
2022-11-10T21:02:02.459Z,57.53
2022-11-10T21:04:29.267Z,58.97
2022-11-10T21:06:56.764Z,59.95
2022-11-10T21:09:27.936Z,60.10
2022-11-10T21:12:16.064Z,63.92
2022-11-10T21:14:43.092Z,65.40
2022-11-10T21:17:18.772Z,65.30
2022-11-10T21:19:50.426Z,61.92
2022-11-10T21:24:44.361Z,65.45
2022-11-10T21:27:17.298Z,68.80
2022-11-10T21:29:44.154Z,69.90
2022-11-10T21:32:13.041Z,66.55
2022-11-10T21:34:40.085Z,70.30
2022-11-10T21:37:10.281Z,67.80
2022-11-10T21:39:42.051Z,71.22
2022-11-10T21:44:40.860Z,70.45
2022-11-10T21:47:10.510Z,69.85
2022-11-10T21:49:57.799Z,68.15
2022-11-10T21:52:29.484Z,72.53
2022-11-10T21:54:57.676Z,71.00
2022-11-10T21:57:27.766Z,69.82
2022-11-10T21:59:54.522Z,70.38
2022-11-10T22:02:30.848Z,70.47
2022-11-10T22:04:57.867Z,75.35
2022-11-10T22:07:27.686Z,74.95
2022-11-10T22:10:14.572Z,74.32
2022-11-10T22:13:03.617Z,71.68
2022-11-10T22:15:48.864Z,73.53
2022-11-10T22:21:23.343Z,77.30
2022-11-10T22:24:11.705Z,76.85
2022-11-10T22:26:39.701Z,79.38
2022-11-10T22:29:08.569Z,77.18
2022-11-10T22:31:35.370Z,78.13
2022-11-10T22:34:02.377Z,77.03
2022-11-10T22:36:31.144Z,77.05
2022-11-10T22:39:04.160Z,80.90
2022-11-10T22:41:51.317Z,74.45
2022-11-10T22:44:24.838Z,78.88
2022-11-10T22:46:57.260Z,80.28
2022-11-10T22:49:24.773Z,74.75
2022-11-10T22:52:02.490Z,75.93
2022-11-10T22:54:29.129Z,74.90
2022-11-10T22:57:02.692Z,74.90
2022-11-10T22:59:38.636Z,73.25
2022-11-10T23:02:05.280Z,76.15
2022-11-10T23:04:31.880Z,76.60
2022-11-10T23:07:06.810Z,76.03
2022-11-10T23:09:35.736Z,76.10
2022-11-10T23:12:02.623Z,77.65
2022-11-10T23:14:33.133Z,75.03
2022-11-10T23:17:06.366Z,74.80
2022-11-10T23:19:43.072Z,71.88
2022-11-10T23:22:25.597Z,73.85
2022-11-10T23:24:57.084Z,73.45
2022-11-10T23:27:28.563Z,73.78
2022-11-10T23:30:00.899Z,75.32
2022-11-10T23:32:27.892Z,67.88
2022-11-10T23:34:55.755Z,70.75
2022-11-10T23:37:27.566Z,69.05
2022-11-10T23:42:34.071Z,68.85
2022-11-10T23:45:00.795Z,71.57
2022-11-10T23:47:40.194Z,68.30
2022-11-10T23:50:08.057Z,68.78
2022-11-10T23:52:34.764Z,68.15
2022-11-10T23:55:05.354Z,70.68
2022-11-10T23:57:36.116Z,69.55
